createdAt,value
2022-08-19T06:46:10.090Z,21.14
2022-08-19T06:47:14.562Z,21.17
2022-08-19T06:48:11.643Z,21.26
2022-08-19T06:49:11.061Z,21.27
2022-08-19T06:50:10.637Z,21.32
2022-08-19T06:51:10.800Z,21.37
2022-08-19T06:52:10.600Z,21.39
2022-08-19T06:53:11.590Z,21.36
2022-08-19T06:54:19.441Z,21.36
2022-08-19T06:55:10.511Z,21.42
2022-08-19T06:56:10.563Z,21.48
2022-08-19T06:57:11.661Z,21.57
2022-08-19T06:58:11.530Z,21.61
2022-08-19T06:59:10.502Z,21.70
2022-08-19T07:00:12.800Z,21.69
2022-08-19T07:01:10.487Z,21.65
2022-08-19T07:02:10.600Z,21.63
2022-08-19T07:03:13.115Z,21.52
2022-08-19T07:04:12.176Z,21.50
2022-08-19T07:05:10.423Z,21.52
2022-08-19T07:06:21.323Z,21.61
2022-08-19T07:07:19.917Z,21.63
2022-08-19T07:08:10.478Z,21.61
2022-08-19T07:09:10.468Z,21.57
2022-08-19T07:10:10.452Z,21.58
2022-08-19T07:11:10.801Z,21.57
2022-08-19T07:12:10.514Z,21.65
2022-08-19T07:13:10.750Z,21.65
2022-08-19T07:14:19.139Z,21.65
2022-08-19T07:15:10.346Z,21.69
2022-08-19T07:16:10.316Z,21.69
2022-08-19T07:17:10.357Z,21.70
2022-08-19T07:18:11.609Z,21.69
2022-08-19T07:19:15.745Z,21.67
2022-08-19T07:20:10.443Z,21.66
2022-08-19T07:21:10.292Z,21.69
2022-08-19T07:22:13.081Z,21.66
2022-08-19T07:23:10.211Z,21.61
2022-08-19T07:24:10.155Z,21.57
2022-08-19T07:25:10.300Z,21.58
2022-08-19T07:26:10.302Z,21.57
2022-08-19T07:27:10.413Z,21.63
2022-08-19T07:28:18.953Z,21.66
2022-08-19T07:29:10.215Z,21.70
2022-08-19T07:30:11.635Z,21.77
2022-08-19T07:31:10.169Z,21.84
2022-08-19T07:32:11.666Z,21.82
2022-08-19T07:33:10.174Z,21.84
2022-08-19T07:34:10.157Z,21.90
2022-08-19T07:35:10.102Z,21.93
2022-08-19T07:36:10.811Z,22.03
2022-08-19T07:37:10.109Z,22.05
2022-08-19T07:38:09.995Z,22.10
2022-08-19T07:39:10.214Z,22.19
2022-08-19T07:40:10.042Z,22.25
2022-08-19T07:41:10.002Z,22.25
2022-08-19T07:42:10.027Z,22.32
2022-08-19T07:43:13.916Z,22.33
2022-08-19T07:44:10.036Z,22.36
2022-08-19T07:45:09.988Z,22.35
2022-08-19T07:47:47.435Z,22.33
2022-08-19T07:48:10.451Z,22.33
2022-08-19T07:49:10.013Z,22.32
2022-08-19T07:50:10.540Z,22.22
2022-08-19T07:51:10.128Z,22.25
2022-08-19T07:52:09.841Z,22.29
2022-08-19T07:53:11.620Z,22.32
2022-08-19T07:54:10.189Z,22.36
2022-08-19T07:55:13.592Z,22.40
2022-08-19T07:56:09.922Z,22.54
2022-08-19T07:57:09.836Z,22.56
2022-08-19T07:58:09.879Z,22.54
2022-08-19T07:59:11.075Z,22.62
2022-08-19T08:00:09.857Z,22.69
2022-08-19T08:01:09.821Z,22.81
2022-08-19T08:02:11.704Z,22.87
2022-08-19T08:04:02.580Z,22.84
2022-08-19T08:04:11.742Z,22.93
2022-08-19T08:05:10.238Z,23.05
2022-08-19T08:06:11.636Z,23.18
2022-08-19T08:07:09.973Z,23.25
2022-08-19T08:08:10.071Z,23.44
2022-08-19T08:09:12.057Z,23.58
2022-08-19T08:10:21.217Z,23.55
2022-08-19T08:11:10.129Z,23.53
2022-08-19T08:12:33.091Z,23.53
2022-08-19T08:13:11.107Z,23.55
2022-08-19T08:14:29.613Z,23.59
2022-08-19T08:15:12.490Z,23.51
2022-08-19T08:16:14.212Z,23.48
2022-08-19T08:17:11.242Z,23.66
2022-08-19T08:18:13.839Z,23.68
2022-08-19T08:19:20.430Z,23.73
2022-08-19T08:20:09.537Z,23.89
2022-08-19T08:21:09.614Z,24.00
2022-08-19T08:22:09.715Z,24.10
2022-08-19T08:23:09.498Z,24.14
2022-08-19T08:24:09.681Z,24.29
2022-08-19T08:25:09.704Z,24.50
2022-08-19T08:26:09.589Z,24.92
2022-08-19T08:27:11.363Z,25.19
2022-08-19T08:28:11.413Z,25.38
2022-08-19T08:29:12.743Z,25.58
2022-08-19T08:30:09.705Z,25.66
2022-08-19T08:31:09.878Z,25.67
2022-08-19T08:32:14.162Z,25.50
2022-08-19T08:33:09.534Z,25.66
2022-08-19T08:34:09.909Z,26.03
2022-08-19T08:35:09.542Z,25.85
2022-08-19T08:36:09.459Z,25.41
2022-08-19T08:37:09.666Z,25.41
2022-08-19T08:38:09.555Z,25.85
2022-08-19T08:39:09.468Z,26.34
2022-08-19T08:40:13.199Z,26.48
2022-08-19T08:41:09.449Z,26.23
2022-08-19T08:42:16.861Z,26.19
2022-08-19T08:43:10.972Z,25.26
2022-08-19T08:44:11.770Z,25.06
2022-08-19T08:45:33.472Z,24.95
2022-08-19T08:46:10.126Z,25.03
2022-08-19T08:47:09.360Z,25.00
2022-08-19T08:48:24.037Z,24.40
2022-08-19T08:49:09.622Z,24.77
2022-08-19T08:50:09.307Z,24.81
2022-08-19T08:51:09.350Z,25.13
2022-08-19T08:52:09.322Z,24.76
2022-08-19T08:53:09.308Z,24.89
2022-08-19T08:54:09.857Z,25.22
2022-08-19T08:55:10.500Z,25.65
2022-08-19T08:56:18.379Z,25.92
2022-08-19T09:09:56.177Z,24.74
2022-08-19T09:10:55.863Z,24.37
2022-08-19T09:11:55.636Z,24.65
2022-08-19T09:12:55.755Z,24.63
2022-08-19T09:13:55.795Z,24.77
2022-08-19T09:14:55.943Z,24.81
2022-08-19T09:15:55.776Z,24.66
2022-08-19T09:35:30.747Z,24.91
2022-08-19T09:36:34.680Z,25.18
2022-08-19T09:37:31.668Z,25.22
2022-08-19T09:38:32.015Z,25.13
2022-08-19T09:39:35.877Z,24.96
2022-08-19T09:40:34.397Z,25.01
2022-08-19T09:41:31.641Z,25.01
2022-08-19T09:42:35.306Z,25.19
2022-08-19T09:43:33.771Z,25.19
2022-08-19T09:44:31.619Z,25.13
2022-08-19T09:45:31.715Z,25.23
2022-08-19T09:46:32.393Z,25.53
2022-08-19T09:47:31.596Z,25.08
2022-08-19T09:48:31.549Z,25.19
2022-08-19T09:49:31.610Z,24.81
2022-08-19T09:50:38.886Z,24.77
2022-08-19T09:51:31.537Z,25.04
2022-08-19T09:52:32.705Z,25.29
2022-08-19T09:53:31.377Z,25.28
2022-08-19T09:54:31.444Z,25.48
2022-08-19T09:55:32.765Z,25.75
2022-08-19T09:56:31.811Z,26.03
2022-08-19T09:57:31.537Z,26.25
2022-08-19T09:58:31.573Z,26.18
2022-08-19T09:59:31.508Z,26.37
2022-08-19T10:00:31.389Z,26.59
2022-08-19T10:01:31.488Z,26.45
2022-08-19T10:02:31.536Z,26.37
2022-08-19T10:03:31.379Z,26.50
2022-08-19T10:04:31.392Z,27.05
2022-08-19T10:05:31.337Z,27.39
